Time;durP1;ratioP1;P1;durP2;ratioP2;P2;SDS_P1;SDS_P2;PMS_P1;PMS_P2;Temp;Humidity;BMP_temperature;BMP_pressure;BME280_temperature;BME280_humidity;BME280_pressure;Samples;Min_cycle;Max_cycle;Signal;HPM_P1;HPM_P2
2021/12/27 00:01:47;;;;;;;11.73;10.50;;;2.90;99.90;;;;;;5056406;28;20181;-81
2021/12/27 00:04:13;;;;;;;11.57;10.37;;;3.00;99.90;;;;;;5056886;28;20202;-84
2021/12/27 00:06:39;;;;;;;11.30;10.20;;;2.90;99.90;;;;;;5058780;28;20206;-84
2021/12/27 00:09:05;;;;;;;10.57;9.53;;;3.00;99.90;;;;;;5058891;28;20182;-84
2021/12/27 00:11:32;;;;;;;10.83;9.73;;;3.00;99.90;;;;;;5058930;28;20240;-85
2021/12/27 00:13:57;;;;;;;11.17;10.07;;;3.00;99.90;;;;;;5058594;28;20297;-84
2021/12/27 00:16:23;;;;;;;10.87;9.33;;;3.00;99.90;;;;;;5059015;28;20218;-85
2021/12/27 00:18:49;;;;;;;10.83;9.73;;;3.00;99.90;;;;;;5059065;28;20178;-84
2021/12/27 00:21:15;;;;;;;10.33;9.33;;;3.00;99.90;;;;;;5059999;28;20185;-84
2021/12/27 00:23:40;;;;;;;11.20;10.17;;;3.00;99.90;;;;;;5058529;28;20182;-85
2021/12/27 00:26:06;;;;;;;11.30;10.20;;;3.00;99.90;;;;;;5058978;28;20217;-84
2021/12/27 00:28:33;;;;;;;10.47;9.47;;;3.00;99.90;;;;;;5058307;28;20266;-84
2021/12/27 00:31:00;;;;;;;10.73;9.63;;;3.00;99.90;;;;;;5058916;28;20182;-85
2021/12/27 00:33:26;;;;;;;11.03;9.90;;;3.00;99.90;;;;;;5058092;28;20178;-85
2021/12/27 00:35:52;;;;;;;10.73;9.63;;;3.00;99.90;;;;;;5058780;28;20285;-85
2021/12/27 00:38:19;;;;;;;10.70;9.67;;;3.00;99.90;;;;;;5059392;28;20259;-85
2021/12/27 00:40:44;;;;;;;10.33;9.23;;;3.00;99.90;;;;;;5057993;28;20174;-85
2021/12/27 00:43:11;;;;;;;9.97;8.97;;;3.00;99.90;;;;;;5058623;28;20200;-84
2021/12/27 00:45:37;;;;;;;10.73;9.63;;;3.00;99.90;;;;;;5056820;28;20351;-85
2021/12/27 00:48:03;;;;;;;10.30;9.23;;;3.00;99.90;;;;;;5058168;28;20166;-84
2021/12/27 00:50:30;;;;;;;10.83;9.70;;;3.00;99.90;;;;;;5056990;28;20174;-84
2021/12/27 00:52:55;;;;;;;10.23;9.30;;;3.00;99.90;;;;;;5056958;28;20197;-85
2021/12/27 00:55:21;;;;;;;11.50;10.33;;;2.90;99.90;;;;;;5057101;28;20667;-84
2021/12/27 00:57:49;;;;;;;11.47;10.00;;;3.00;99.90;;;;;;5056808;28;20186;-83
2021/12/27 01:00:17;;;;;;;10.87;9.83;;;2.90;99.90;;;;;;5057949;28;20166;-83
2021/12/27 01:02:43;;;;;;;10.50;9.43;;;3.00;99.90;;;;;;5056913;28;20186;-83
2021/12/27 01:05:10;;;;;;;9.73;8.90;;;2.90;99.90;;;;;;5056923;28;20206;-84
2021/12/27 01:07:36;;;;;;;10.67;9.67;;;2.90;99.90;;;;;;5056825;28;20171;-84
2021/12/27 01:10:19;;;;;;;10.07;9.07;;;3.00;99.90;;;;;;5056814;28;20190;-83
2021/12/27 01:17:50;;;;;;;9.83;8.93;;;3.00;99.90;;;;;;5058964;28;20200;-83
2021/12/27 01:20:19;;;;;;;10.50;9.43;;;3.00;99.90;;;;;;5057853;28;20181;-84
2021/12/27 01:22:45;;;;;;;9.83;8.93;;;3.00;99.90;;;;;;5058915;28;20180;-84
2021/12/27 01:25:12;;;;;;;9.63;8.73;;;3.00;99.90;;;;;;5056550;28;20297;-84
2021/12/27 01:27:39;;;;;;;9.60;8.60;;;3.00;99.90;;;;;;5057152;28;20232;-84
2021/12/27 01:30:07;;;;;;;11.20;9.03;;;3.10;99.90;;;;;;5057846;28;20193;-84
2021/12/27 01:32:39;;;;;;;9.90;8.90;;;3.00;99.90;;;;;;5057118;28;20174;-84
2021/12/27 01:35:05;;;;;;;10.27;9.07;;;3.10;99.90;;;;;;5056096;28;20199;-82
2021/12/27 01:37:31;;;;;;;9.67;8.77;;;3.10;99.90;;;;;;5055168;28;20201;-82
2021/12/27 01:39:57;;;;;;;9.80;8.73;;;3.10;99.90;;;;;;5055255;28;20186;-82
2021/12/27 01:42:23;;;;;;;10.50;9.50;;;3.10;99.90;;;;;;5055554;28;20185;-82
2021/12/27 01:44:49;;;;;;;10.23;9.23;;;3.10;99.90;;;;;;5056050;28;20669;-82
2021/12/27 01:47:14;;;;;;;9.83;8.90;;;3.10;99.90;;;;;;5056593;28;20175;-82
2021/12/27 01:49:40;;;;;;;9.60;8.80;;;3.10;99.90;;;;;;5055401;28;20174;-83
2021/12/27 01:52:06;;;;;;;9.90;9.10;;;3.10;99.90;;;;;;5058746;28;20516;-84
2021/12/27 01:54:32;;;;;;;10.13;9.03;;;3.10;99.90;;;;;;5054556;28;20683;-83
2021/12/27 01:56:59;;;;;;;12.17;10.93;;;3.10;99.90;;;;;;5054361;28;20624;-84
2021/12/27 01:59:26;;;;;;;10.83;9.83;;;3.20;99.90;;;;;;5055462;28;20174;-82
2021/12/27 02:01:52;;;;;;;11.30;10.17;;;3.20;99.90;;;;;;5055717;28;20253;-82
2021/12/27 02:04:18;;;;;;;10.77;9.63;;;3.20;99.90;;;;;;5059518;28;20244;-84
2021/12/27 02:06:44;;;;;;;11.73;10.53;;;3.20;99.90;;;;;;5061640;28;20203;-84
2021/12/27 02:09:10;;;;;;;10.60;9.60;;;3.20;99.90;;;;;;5060900;28;20175;-84
2021/12/27 02:11:36;;;;;;;10.57;9.53;;;3.20;99.90;;;;;;5061215;28;20248;-84
2021/12/27 02:14:04;;;;;;;11.57;10.10;;;3.30;99.90;;;;;;5060787;28;20195;-84
2021/12/27 02:16:31;;;;;;;9.80;8.90;;;3.30;99.90;;;;;;5060479;28;20236;-84
2021/12/27 02:18:57;;;;;;;10.60;9.50;;;3.20;99.90;;;;;;5060966;28;20182;-85
2021/12/27 02:21:24;;;;;;;11.40;10.03;;;3.20;99.90;;;;;;5062012;28;20179;-85
2021/12/27 02:23:52;;;;;;;10.23;9.23;;;3.20;99.90;;;;;;5061490;28;20186;-85
2021/12/27 02:26:19;;;;;;;10.63;9.57;;;3.30;99.90;;;;;;5061265;28;20682;-85
2021/12/27 02:28:45;;;;;;;10.67;9.57;;;3.30;99.90;;;;;;5059787;28;20178;-85
2021/12/27 02:31:12;;;;;;;11.23;10.00;;;3.20;99.90;;;;;;5057550;28;20182;-85
2021/12/27 02:33:39;;;;;;;10.57;9.47;;;3.30;99.90;;;;;;5059435;28;20201;-85
2021/12/27 02:36:07;;;;;;;9.83;8.83;;;3.30;99.90;;;;;;5058076;28;20178;-85
2021/12/27 02:38:36;;;;;;;10.10;9.10;;;3.20;99.90;;;;;;5058046;28;20248;-83
2021/12/27 02:41:02;;;;;;;10.60;9.60;;;3.20;99.90;;;;;;5057825;28;20210;-83
2021/12/27 02:43:32;;;;;;;10.50;9.50;;;3.20;99.90;;;;;;5059417;28;20171;-83
2021/12/27 02:46:09;;;;;;;9.93;8.93;;;3.20;99.90;;;;;;5058260;28;20650;-83
2021/12/27 02:48:38;;;;;;;9.97;8.97;;;3.20;99.90;;;;;;5059352;28;20194;-83
2021/12/27 02:51:05;;;;;;;10.43;9.20;;;3.20;99.90;;;;;;5057816;28;20702;-83
2021/12/27 02:53:30;;;;;;;9.63;8.70;;;3.20;99.90;;;;;;5058273;28;20552;-83
2021/12/27 02:55:58;;;;;;;9.57;8.63;;;3.20;99.90;;;;;;5058662;28;20195;-83
2021/12/27 02:58:25;;;;;;;9.50;8.60;;;3.20;99.90;;;;;;5057835;28;20216;-83
2021/12/27 03:01:01;;;;;;;10.03;9.13;;;3.20;99.90;;;;;;5057843;28;20668;-83
2021/12/27 03:03:27;;;;;;;8.83;8.03;;;3.20;99.90;;;;;;5059400;28;20618;-86
2021/12/27 03:05:53;;;;;;;9.70;8.80;;;3.20;99.90;;;;;;5059260;28;20202;-82
2021/12/27 03:08:20;;;;;;;9.67;8.67;;;3.20;99.90;;;;;;5057568;28;20175;-82
2021/12/27 03:10:52;;;;;;;9.77;8.87;;;3.20;99.90;;;;;;5058099;28;20170;-82
2021/12/27 03:13:21;;;;;;;9.47;8.57;;;3.30;99.90;;;;;;5059335;28;20177;-83
2021/12/27 03:15:58;;;;;;;9.07;8.27;;;3.30;99.90;;;;;;5058114;28;20230;-83
2021/12/27 03:18:25;;;;;;;9.13;8.27;;;3.30;99.90;;;;;;5057480;28;20206;-84
2021/12/27 03:20:51;;;;;;;9.13;8.27;;;3.30;99.90;;;;;;5057478;28;20185;-84
2021/12/27 03:23:17;;;;;;;9.27;8.47;;;3.30;99.90;;;;;;5059168;28;20181;-85
2021/12/27 03:25:43;;;;;;;9.60;8.70;;;3.30;99.90;;;;;;5057176;28;20301;-85
2021/12/27 03:28:09;;;;;;;9.83;8.87;;;3.30;99.90;;;;;;5057647;28;20236;-85
2021/12/27 03:30:35;;;;;;;9.70;8.67;;;3.30;99.90;;;;;;5058377;28;20205;-85
2021/12/27 03:33:03;;;;;;;9.50;8.60;;;3.40;99.90;;;;;;5058464;28;20174;-83
2021/12/27 03:35:35;;;;;;;9.07;8.17;;;3.30;99.90;;;;;;5057252;28;20595;-83
2021/12/27 03:38:02;;;;;;;10.30;8.50;;;3.30;99.90;;;;;;5057709;28;20529;-82
2021/12/27 03:40:28;;;;;;;9.30;8.50;;;3.30;99.90;;;;;;5057282;28;20661;-82
2021/12/27 03:42:55;;;;;;;9.27;8.47;;;3.30;99.90;;;;;;5057615;28;20186;-85
2021/12/27 03:45:33;;;;;;;8.80;8.00;;;3.30;99.90;;;;;;5058888;28;20202;-84
2021/12/27 03:47:59;;;;;;;9.47;8.67;;;3.30;99.90;;;;;;5058197;28;20237;-84
2021/12/27 03:50:26;;;;;;;8.87;7.97;;;3.30;99.90;;;;;;5057923;28;20178;-84
2021/12/27 03:52:56;;;;;;;9.10;8.30;;;3.30;99.90;;;;;;5057952;28;20182;-82
2021/12/27 03:55:23;;;;;;;8.77;7.97;;;3.30;99.90;;;;;;5057626;28;20282;-83
2021/12/27 03:57:54;;;;;;;8.80;8.00;;;3.30;99.90;;;;;;5057999;28;20635;-83
2021/12/27 04:00:31;;;;;;;8.30;7.53;;;3.30;99.90;;;;;;5058995;28;20170;-83
2021/12/27 04:02:59;;;;;;;8.73;7.90;;;3.30;99.90;;;;;;5058459;28;20174;-81
2021/12/27 04:05:26;;;;;;;10.07;8.60;;;3.30;99.90;;;;;;5056097;28;20203;-81
2021/12/27 04:08:00;;;;;;;9.17;8.27;;;3.30;99.90;;;;;;5057340;28;20186;-83
2021/12/27 04:10:27;;;;;;;9.87;8.97;;;3.30;99.90;;;;;;5055949;28;20167;-81
2021/12/27 04:12:52;;;;;;;9.90;8.90;;;3.30;99.90;;;;;;5055853;28;20257;-82
2021/12/27 04:15:18;;;;;;;8.80;8.00;;;3.30;99.90;;;;;;5056796;28;20225;-82
2021/12/27 04:17:44;;;;;;;9.17;8.27;;;3.30;99.90;;;;;;5055777;28;20224;-81
2021/12/27 04:20:10;;;;;;;10.03;9.03;;;3.30;99.90;;;;;;5056504;28;20182;-83
2021/12/27 04:22:36;;;;;;;8.90;8.10;;;3.30;99.90;;;;;;5056548;28;20290;-85
2021/12/27 04:25:02;;;;;;;9.53;8.63;;;3.30;99.90;;;;;;5057416;28;20234;-83
2021/12/27 04:27:28;;;;;;;10.20;8.83;;;3.30;99.90;;;;;;5056311;28;20185;-82
2021/12/27 04:29:54;;;;;;;9.23;8.33;;;3.30;99.90;;;;;;5055152;28;20213;-81
2021/12/27 04:32:20;;;;;;;11.43;10.27;;;3.30;99.90;;;;;;5055184;28;20279;-80
2021/12/27 04:34:46;;;;;;;10.07;9.07;;;3.30;99.90;;;;;;5055089;28;20194;-81
2021/12/27 04:37:12;;;;;;;10.27;9.20;;;3.30;99.90;;;;;;5055453;28;20185;-80
2021/12/27 04:39:38;;;;;;;10.30;9.30;;;3.30;99.90;;;;;;5054838;28;20178;-81
2021/12/27 04:42:06;;;;;;;11.00;9.90;;;3.30;99.90;;;;;;5055389;28;20552;-81
2021/12/27 04:44:33;;;;;;;9.57;8.67;;;3.30;99.90;;;;;;5054720;28;20266;-81
2021/12/27 04:46:59;;;;;;;8.90;8.10;;;3.30;99.90;;;;;;5056808;28;20584;-82
2021/12/27 04:49:24;;;;;;;10.30;9.30;;;3.30;99.90;;;;;;5056094;28;20174;-82
2021/12/27 04:51:50;;;;;;;10.60;9.50;;;3.40;99.90;;;;;;5056623;28;20232;-82
2021/12/27 04:54:16;;;;;;;9.50;8.60;;;3.40;99.90;;;;;;5056023;28;20247;-83
2021/12/27 04:56:42;;;;;;;9.27;8.37;;;3.40;99.90;;;;;;5056245;28;20192;-83
2021/12/27 04:59:08;;;;;;;9.43;8.53;;;3.40;99.90;;;;;;5057084;28;20179;-83
2021/12/27 05:01:33;;;;;;;10.07;8.80;;;3.40;99.90;;;;;;5057707;28;20171;-83
2021/12/27 05:03:59;;;;;;;9.67;8.70;;;3.40;99.90;;;;;;5056368;28;20194;-83
2021/12/27 05:06:27;;;;;;;10.40;9.30;;;3.40;99.90;;;;;;5056759;28;20267;-83
2021/12/27 05:08:53;;;;;;;10.63;9.53;;;3.40;99.90;;;;;;5055667;28;20495;-80
2021/12/27 05:11:20;;;;;;;10.07;9.07;;;3.50;99.90;;;;;;5054479;28;20182;-79
2021/12/27 05:13:46;;;;;;;10.27;9.23;;;3.50;99.90;;;;;;5061455;28;20179;-80
2021/12/27 05:16:12;;;;;;;9.70;8.70;;;3.50;99.90;;;;;;5063000;28;20178;-81
2021/12/27 05:18:37;;;;;;;9.90;8.80;;;3.50;99.90;;;;;;5054437;28;20186;-80
2021/12/27 05:21:03;;;;;;;10.17;8.80;;;3.40;99.90;;;;;;5055329;28;20197;-79
2021/12/27 05:23:31;;;;;;;10.53;8.90;;;3.40;99.90;;;;;;5053926;28;20182;-79
2021/12/27 05:25:56;;;;;;;9.07;8.17;;;3.40;99.90;;;;;;5054627;28;20218;-79
2021/12/27 05:28:22;;;;;;;10.80;9.07;;;3.40;99.90;;;;;;5054843;28;20281;-81
2021/12/27 05:30:51;;;;;;;10.23;9.23;;;3.40;99.90;;;;;;5054807;28;20233;-80
2021/12/27 05:33:18;;;;;;;10.53;9.53;;;3.40;99.90;;;;;;5055313;28;20696;-79
2021/12/27 05:35:44;;;;;;;10.33;9.33;;;3.40;99.90;;;;;;5055884;28;20194;-80
2021/12/27 05:38:10;;;;;;;10.23;9.17;;;3.40;99.90;;;;;;5058286;28;20186;-81
2021/12/27 05:40:36;;;;;;;10.57;9.57;;;3.40;99.90;;;;;;5058894;28;20208;-81
2021/12/27 05:43:02;;;;;;;10.27;9.30;;;3.40;99.90;;;;;;5059529;28;20231;-80
2021/12/27 05:45:28;;;;;;;10.93;9.40;;;3.40;99.90;;;;;;5060235;28;20268;-80
2021/12/27 05:47:55;;;;;;;9.83;8.90;;;3.40;99.90;;;;;;5059679;28;20539;-80
2021/12/27 05:50:21;;;;;;;10.10;9.10;;;3.40;99.90;;;;;;5058741;28;20170;-80
2021/12/27 05:52:46;;;;;;;10.33;9.33;;;3.40;99.90;;;;;;5058313;28;20734;-80
2021/12/27 05:55:12;;;;;;;9.80;8.83;;;3.40;99.90;;;;;;5058494;28;20238;-80
2021/12/27 05:57:39;;;;;;;10.57;9.50;;;3.30;99.90;;;;;;5058511;28;20186;-80
2021/12/27 06:00:08;;;;;;;10.27;9.37;;;3.40;99.90;;;;;;5059553;28;20181;-80
2021/12/27 06:02:33;;;;;;;9.50;8.60;;;3.40;99.90;;;;;;5057146;28;20654;-80
2021/12/27 06:04:59;;;;;;;10.53;9.43;;;3.40;99.90;;;;;;5057755;28;20245;-80
2021/12/27 06:07:25;;;;;;;9.80;8.80;;;3.40;99.90;;;;;;5058142;28;20193;-79
2021/12/27 06:09:50;;;;;;;10.43;9.30;;;3.40;99.90;;;;;;5058327;28;20179;-82
2021/12/27 06:12:16;;;;;;;10.07;9.07;;;3.40;99.90;;;;;;5058679;28;20630;-83
2021/12/27 06:14:42;;;;;;;10.23;9.20;;;3.40;99.90;;;;;;5061605;28;20195;-83
2021/12/27 06:17:08;;;;;;;10.27;9.27;;;3.40;99.90;;;;;;5058315;28;20639;-83
2021/12/27 06:19:33;;;;;;;9.80;8.80;;;3.50;99.90;;;;;;5056994;28;20217;-83
2021/12/27 06:22:03;;;;;;;10.03;9.03;;;3.50;99.90;;;;;;5058876;28;20171;-83
2021/12/27 06:24:28;;;;;;;9.77;8.87;;;3.50;99.90;;;;;;5058512;28;20198;-83
2021/12/27 06:26:54;;;;;;;10.50;9.33;;;3.50;99.90;;;;;;5056535;28;20205;-81
2021/12/27 06:29:21;;;;;;;9.93;8.93;;;3.50;99.90;;;;;;5056696;28;20202;-81
2021/12/27 06:31:47;;;;;;;10.03;9.03;;;3.50;99.90;;;;;;5055891;28;20186;-81
2021/12/27 06:34:14;;;;;;;9.50;8.60;;;3.50;99.90;;;;;;5057291;28;20689;-81
2021/12/27 06:36:40;;;;;;;10.43;9.43;;;3.50;99.90;;;;;;5055832;28;20189;-81
2021/12/27 06:39:06;;;;;;;9.77;8.87;;;3.50;99.90;;;;;;5057881;28;20178;-81
2021/12/27 06:41:32;;;;;;;9.70;8.70;;;3.50;99.90;;;;;;5056228;28;20636;-81
2021/12/27 06:43:58;;;;;;;9.87;8.87;;;3.50;99.90;;;;;;5056418;28;20309;-82
2021/12/27 06:46:24;;;;;;;8.90;7.93;;;3.50;99.90;;;;;;5056000;28;20234;-82
2021/12/27 06:48:49;;;;;;;9.97;8.97;;;3.50;99.90;;;;;;5056520;28;20187;-82
2021/12/27 06:51:15;;;;;;;9.90;8.33;;;3.50;99.90;;;;;;5057491;28;20170;-81
2021/12/27 06:53:41;;;;;;;10.10;9.10;;;3.50;99.90;;;;;;5055250;28;20185;-79
2021/12/27 06:56:07;;;;;;;9.73;8.73;;;3.40;99.90;;;;;;5055393;28;20379;-82
2021/12/27 06:58:32;;;;;;;10.17;9.20;;;3.50;99.90;;;;;;5058324;28;20182;-82
2021/12/27 07:00:58;;;;;;;10.97;9.80;;;3.50;99.90;;;;;;5055929;28;20182;-82
2021/12/27 07:03:24;;;;;;;10.00;9.00;;;3.50;99.90;;;;;;5056009;28;20175;-82
2021/12/27 07:05:50;;;;;;;10.77;9.43;;;3.50;99.90;;;;;;5055292;28;20251;-82
2021/12/27 07:08:18;;;;;;;12.20;10.07;;;3.50;99.90;;;;;;5055834;28;20178;-81
2021/12/27 07:10:44;;;;;;;11.10;9.63;;;3.50;99.90;;;;;;5057158;28;20253;-82
2021/12/27 07:13:09;;;;;;;12.30;10.63;;;3.60;99.90;;;;;;5055432;28;20221;-81
2021/12/27 07:15:41;;;;;;;12.83;10.40;;;3.70;99.90;;;;;;5056852;28;20248;-80
2021/12/27 07:18:08;;;;;;;11.83;10.43;;;3.80;99.90;;;;;;5055310;28;20170;-80
2021/12/27 07:20:35;;;;;;;11.20;10.03;;;3.80;99.90;;;;;;5055832;28;20182;-83
2021/12/27 07:23:03;;;;;;;12.57;10.37;;;3.80;99.90;;;;;;5057073;28;20181;-82
2021/12/27 07:25:29;;;;;;;10.93;9.83;;;3.80;99.90;;;;;;5055215;28;20218;-82
2021/12/27 07:27:55;;;;;;;12.33;9.93;;;3.80;99.90;;;;;;5056078;28;20179;-82
2021/12/27 07:30:21;;;;;;;11.50;10.27;;;3.80;99.90;;;;;;5056190;28;20182;-82
2021/12/27 07:32:46;;;;;;;11.07;9.97;;;3.80;99.90;;;;;;5055879;28;20179;-82
2021/12/27 07:35:13;;;;;;;11.20;10.10;;;3.80;99.90;;;;;;5055924;28;20210;-82
2021/12/27 07:37:39;;;;;;;11.73;10.47;;;3.80;99.90;;;;;;5055974;28;20240;-82
2021/12/27 07:40:05;;;;;;;12.50;10.60;;;3.80;99.90;;;;;;5059553;28;20214;-81
2021/12/27 07:42:31;;;;;;;10.57;9.43;;;3.80;99.90;;;;;;5059546;28;20183;-79
2021/12/27 07:44:57;;;;;;;12.87;10.10;;;3.80;99.90;;;;;;5056823;28;20275;-81
2021/12/27 07:47:22;;;;;;;11.60;10.40;;;3.80;99.90;;;;;;5055587;28;20175;-82
2021/12/27 07:49:48;;;;;;;10.27;9.27;;;3.80;99.90;;;;;;5056191;28;20167;-82
2021/12/27 07:52:14;;;;;;;11.37;10.00;;;3.80;99.90;;;;;;5056199;28;20522;-81
2021/12/27 07:54:40;;;;;;;10.90;9.80;;;3.80;99.90;;;;;;5057589;28;20289;-79
2021/12/27 07:57:07;;;;;;;12.83;10.53;;;3.80;99.90;;;;;;5057096;28;20246;-80
2021/12/27 07:59:33;;;;;;;13.00;11.37;;;3.80;99.90;;;;;;5056200;28;20217;-80
2021/12/27 08:01:59;;;;;;;13.73;11.30;;;3.90;99.90;;;;;;5056767;28;20174;-80
2021/12/27 08:04:25;;;;;;;15.90;11.50;;;3.90;99.90;;;;;;5055107;28;20663;-80
2021/12/27 08:06:51;;;;;;;11.90;10.70;;;3.90;99.90;;;;;;5057892;28;20202;-78
2021/12/27 08:09:17;;;;;;;11.73;10.50;;;4.00;99.90;;;;;;5057288;28;20178;-79
2021/12/27 08:11:43;;;;;;;12.73;11.13;;;4.00;99.90;;;;;;5057308;28;20712;-80
2021/12/27 08:14:09;;;;;;;11.37;10.17;;;4.00;99.90;;;;;;5057063;28;20194;-79
2021/12/27 08:16:34;;;;;;;13.07;10.30;;;4.00;99.90;;;;;;5055956;28;20182;-80
2021/12/27 08:19:00;;;;;;;12.07;10.20;;;4.00;99.90;;;;;;5057704;28;20237;-81
2021/12/27 08:21:27;;;;;;;10.93;9.77;;;4.10;99.90;;;;;;5055911;28;20205;-81
2021/12/27 08:23:53;;;;;;;13.63;11.00;;;4.10;99.90;;;;;;5055739;28;20213;-81
2021/12/27 08:26:19;;;;;;;12.80;10.77;;;4.10;99.90;;;;;;5055753;28;20214;-82
2021/12/27 08:28:49;;;;;;;14.07;10.00;;;4.10;99.90;;;;;;5056730;28;20179;-82
2021/12/27 08:31:14;;;;;;;10.57;9.50;;;4.10;99.90;;;;;;5057939;28;20170;-82
2021/12/27 08:33:40;;;;;;;10.70;9.60;;;4.10;99.90;;;;;;5055422;28;20262;-82
2021/12/27 08:36:06;;;;;;;13.07;9.63;;;4.10;99.90;;;;;;5055022;28;20639;-82
2021/12/27 08:38:32;;;;;;;10.70;9.60;;;4.20;99.90;;;;;;5054607;28;20178;-82
2021/12/27 08:40:58;;;;;;;10.07;9.00;;;4.20;99.90;;;;;;5054440;28;20642;-82
2021/12/27 08:43:25;;;;;;;10.33;8.90;;;4.30;99.90;;;;;;5054819;28;20183;-82
2021/12/27 08:45:52;;;;;;;10.17;9.17;;;4.30;99.90;;;;;;5054779;28;20629;-82
2021/12/27 08:48:18;;;;;;;11.43;9.57;;;4.30;99.90;;;;;;5055636;28;20193;-82
2021/12/27 08:50:44;;;;;;;11.43;9.17;;;4.30;99.90;;;;;;5067336;28;20167;-82
2021/12/27 08:53:10;;;;;;;10.43;9.20;;;4.40;99.90;;;;;;5062678;28;20585;-82
2021/12/27 08:55:37;;;;;;;9.97;8.80;;;4.40;99.90;;;;;;5057606;28;20209;-82
2021/12/27 08:58:05;;;;;;;10.00;8.93;;;4.50;99.90;;;;;;5061551;28;20174;-82
2021/12/27 09:00:31;;;;;;;9.97;8.97;;;4.50;99.90;;;;;;5058495;28;20324;-82
2021/12/27 09:02:57;;;;;;;10.03;9.00;;;4.60;99.90;;;;;;5059062;28;20197;-82
2021/12/27 09:05:23;;;;;;;12.87;9.23;;;4.70;99.90;;;;;;5058740;28;20202;-82
2021/12/27 09:07:49;;;;;;;10.60;9.50;;;4.70;99.90;;;;;;5059972;28;20677;-82
2021/12/27 09:10:15;;;;;;;10.40;9.30;;;4.70;99.90;;;;;;5057945;28;20174;-82
2021/12/27 09:12:41;;;;;;;9.97;8.97;;;4.70;99.90;;;;;;5057141;28;20201;-82
2021/12/27 09:15:08;;;;;;;10.43;9.07;;;4.70;99.90;;;;;;5058334;28;20198;-82
2021/12/27 09:17:34;;;;;;;11.63;8.90;;;4.80;99.90;;;;;;5057734;28;20224;-81
2021/12/27 09:20:00;;;;;;;9.50;8.53;;;4.80;99.90;;;;;;5055067;28;20183;-80
2021/12/27 09:22:26;;;;;;;9.93;8.20;;;4.90;99.90;;;;;;5054074;28;20178;-80
2021/12/27 09:24:52;;;;;;;9.40;8.53;;;5.00;99.90;;;;;;5055213;28;20214;-80
2021/12/27 09:27:18;;;;;;;9.90;8.60;;;5.00;99.90;;;;;;5055803;28;20193;-80
2021/12/27 09:29:45;;;;;;;10.17;8.80;;;5.10;99.90;;;;;;5055641;28;20181;-80
2021/12/27 09:32:12;;;;;;;9.73;8.67;;;5.20;99.90;;;;;;5055272;28;20655;-80
2021/12/27 09:34:39;;;;;;;10.70;8.90;;;5.20;99.90;;;;;;5056466;28;20236;-81
2021/12/27 09:37:06;;;;;;;9.67;8.73;;;5.20;99.90;;;;;;5055134;28;20182;-80
2021/12/27 09:39:32;;;;;;;11.57;8.77;;;5.20;99.90;;;;;;5054659;28;20197;-80
2021/12/27 09:41:59;;;;;;;9.30;8.40;;;5.30;99.90;;;;;;5056142;28;20178;-80
2021/12/27 09:44:25;;;;;;;9.40;8.00;;;5.30;99.90;;;;;;5055612;28;20690;-81
2021/12/27 09:46:50;;;;;;;9.30;7.97;;;5.40;99.90;;;;;;5054328;28;20198;-80
2021/12/27 09:49:19;;;;;;;8.50;7.70;;;5.50;99.90;;;;;;5054272;28;20181;-81
2021/12/27 09:51:45;;;;;;;8.03;7.33;;;5.60;99.90;;;;;;5054492;28;20178;-81
2021/12/27 09:54:11;;;;;;;10.03;7.23;;;5.60;99.90;;;;;;5054348;28;20202;-81
2021/12/27 09:56:37;;;;;;;8.00;7.20;;;5.60;99.90;;;;;;5054928;28;20186;-81
2021/12/27 09:59:04;;;;;;;7.80;7.10;;;5.60;99.90;;;;;;5054357;28;20180;-81
2021/12/27 10:01:30;;;;;;;8.67;7.47;;;5.70;99.90;;;;;;5057944;28;20182;-80
2021/12/27 10:03:58;;;;;;;8.73;7.43;;;5.70;99.90;;;;;;5066988;28;20240;-80
2021/12/27 10:06:26;;;;;;;8.27;7.37;;;5.80;99.90;;;;;;5069468;28;20205;-81
2021/12/27 10:08:54;;;;;;;7.90;7.10;;;5.80;99.90;;;;;;5053379;28;20178;-81
2021/12/27 10:11:24;;;;;;;8.43;6.97;;;5.90;99.90;;;;;;5056873;28;20175;-80
2021/12/27 10:14:08;;;;;;;7.67;6.80;;;5.90;99.90;;;;;;5053039;28;20237;-80
2021/12/27 10:16:40;;;;;;;7.77;6.97;;;5.90;99.90;;;;;;5054381;28;20285;-80
2021/12/27 10:19:09;;;;;;;7.87;6.93;;;5.90;99.90;;;;;;5053156;28;20185;-80
2021/12/27 10:21:35;;;;;;;7.27;6.53;;;5.90;99.90;;;;;;5053771;28;20175;-80
2021/12/27 10:24:04;;;;;;;7.30;6.60;;;5.90;99.90;;;;;;5055337;28;20195;-80
2021/12/27 10:26:31;;;;;;;6.90;6.30;;;5.90;99.90;;;;;;5057304;28;20205;-80
2021/12/27 10:29:27;;;;;;;9.00;6.83;;;6.10;99.90;;;;;;5057390;28;20182;-80
2021/12/27 10:32:04;;;;;;;8.13;6.83;;;6.30;99.90;;;;;;5041373;28;20183;-80
2021/12/27 10:34:50;;;;;;;6.40;5.70;;;6.50;99.90;;;;;;5058476;28;20255;-80
2021/12/27 10:37:26;;;;;;;6.70;6.10;;;6.60;99.90;;;;;;5057536;28;20178;-80
2021/12/27 10:40:03;;;;;;;6.80;6.20;;;6.70;99.90;;;;;;5058436;28;20174;-80
2021/12/27 10:42:30;;;;;;;6.13;5.63;;;6.90;99.90;;;;;;5058571;28;20162;-80
2021/12/27 10:45:08;;;;;;;7.20;6.30;;;7.00;99.90;;;;;;5056570;28;20194;-80
2021/12/27 10:47:44;;;;;;;6.90;6.27;;;6.90;99.90;;;;;;5057112;28;20224;-80
2021/12/27 10:50:14;;;;;;;7.07;6.37;;;7.10;99.90;;;;;;5057022;28;20236;-80
2021/12/27 10:52:46;;;;;;;6.40;5.90;;;7.30;99.90;;;;;;5056424;28;20174;-80
2021/12/27 10:55:14;;;;;;;6.17;5.60;;;7.60;99.90;;;;;;5057956;28;20277;-80
2021/12/27 10:57:40;;;;;;;6.03;5.47;;;7.80;99.90;;;;;;5056825;28;20236;-80
2021/12/27 11:00:15;;;;;;;6.10;5.60;;;8.00;99.90;;;;;;5056780;28;20174;-80
2021/12/27 11:02:41;;;;;;;5.33;4.90;;;7.90;99.90;;;;;;5056490;28;20174;-80
2021/12/27 11:05:24;;;;;;;5.50;5.00;;;7.70;99.90;;;;;;5057958;28;20720;-80
2021/12/27 11:08:00;;;;;;;5.30;4.90;;;7.50;99.90;;;;;;5056927;28;20167;-80
2021/12/27 11:10:27;;;;;;;5.30;4.90;;;7.40;99.90;;;;;;5056713;28;20171;-80
2021/12/27 11:12:54;;;;;;;5.53;5.07;;;7.30;99.90;;;;;;5056459;28;20514;-80
2021/12/27 11:15:20;;;;;;;5.33;4.93;;;7.30;99.90;;;;;;5056763;28;20199;-80
2021/12/27 11:17:46;;;;;;;5.23;4.87;;;7.50;99.90;;;;;;5056486;28;20178;-80
2021/12/27 11:20:14;;;;;;;5.07;4.67;;;7.50;99.90;;;;;;5058818;28;20208;-81
2021/12/27 11:22:44;;;;;;;5.27;4.87;;;7.50;99.90;;;;;;5056109;28;20182;-80
2021/12/27 11:25:33;;;;;;;5.03;4.73;;;7.40;99.90;;;;;;5056875;28;20675;-80
2021/12/27 11:28:00;;;;;;;4.97;4.67;;;7.30;99.90;;;;;;5059194;28;20183;-82
2021/12/27 11:30:29;;;;;;;4.90;4.60;;;7.20;99.90;;;;;;5060005;28;20209;-82
2021/12/27 11:33:04;;;;;;;5.00;4.60;;;7.20;99.90;;;;;;5059197;28;20265;-82
2021/12/27 11:35:51;;;;;;;5.13;4.73;;;7.20;99.90;;;;;;5058269;28;20247;-79
2021/12/27 11:38:37;;;;;;;5.00;4.63;;;7.40;99.90;;;;;;5056477;28;20185;-79
2021/12/27 11:41:24;;;;;;;5.73;5.20;;;7.60;99.90;;;;;;5057251;28;20206;-79
2021/12/27 11:43:58;;;;;;;4.90;4.60;;;7.90;99.90;;;;;;5047648;28;20210;-79
2021/12/27 11:46:30;;;;;;;5.10;4.80;;;8.00;99.90;;;;;;5056229;28;20236;-79
2021/12/27 11:49:01;;;;;;;4.93;4.57;;;8.00;99.90;;;;;;5055777;28;20266;-79
2021/12/27 11:51:32;;;;;;;5.10;4.80;;;8.00;99.90;;;;;;5058361;28;20159;-79
2021/12/27 11:53:59;;;;;;;5.07;4.57;;;7.90;99.90;;;;;;5056713;28;20202;-79
2021/12/27 11:56:44;;;;;;;4.60;4.30;;;7.90;99.90;;;;;;5058545;28;20171;-79
2021/12/27 11:59:42;;;;;;;4.60;4.30;;;8.10;99.90;;;;;;5057498;28;20233;-79
2021/12/27 12:02:13;;;;;;;4.53;4.23;;;8.40;99.90;;;;;;5056346;28;20194;-80
2021/12/27 12:04:55;;;;;;;4.70;4.40;;;8.40;99.90;;;;;;5056359;28;20244;-81
2021/12/27 12:07:32;;;;;;;4.60;4.30;;;8.40;99.90;;;;;;5054910;28;20273;-81
2021/12/27 12:10:00;;;;;;;4.30;4.00;;;8.20;99.90;;;;;;5055175;28;20244;-81
2021/12/27 12:12:28;;;;;;;4.40;4.10;;;8.20;99.90;;;;;;5055808;28;20202;-81
2021/12/27 12:14:58;;;;;;;4.17;3.87;;;8.30;99.90;;;;;;5055887;28;20194;-81
2021/12/27 12:17:53;;;;;;;4.30;4.00;;;8.50;99.90;;;;;;5057375;28;20167;-80
2021/12/27 12:20:26;;;;;;;4.50;4.20;;;8.60;99.90;;;;;;5044203;28;20190;-80
2021/12/27 12:23:00;;;;;;;4.80;4.50;;;8.60;99.90;;;;;;5055569;28;20631;-81
2021/12/27 12:25:26;;;;;;;4.00;3.80;;;8.70;99.90;;;;;;5068731;28;20281;-81
2021/12/27 12:27:59;;;;;;;4.67;4.27;;;8.60;99.90;;;;;;5063919;28;20198;-81
2021/12/27 12:30:34;;;;;;;4.70;4.40;;;8.50;99.90;;;;;;5064067;28;20178;-81
2021/12/27 12:33:04;;;;;;;4.60;4.30;;;8.30;99.90;;;;;;5063064;28;20173;-81
2021/12/27 12:35:45;;;;;;;4.90;4.50;;;8.10;99.90;;;;;;5062102;28;20241;-81
2021/12/27 12:38:31;;;;;;;5.10;4.70;;;7.90;99.90;;;;;;5061347;28;20277;-81
2021/12/27 12:41:00;;;;;;;5.70;5.20;;;7.80;99.90;;;;;;5062007;28;20209;-81
2021/12/27 12:43:37;;;;;;;6.23;5.73;;;7.70;99.90;;;;;;5060638;28;20178;-80
2021/12/27 12:46:27;;;;;;;6.23;5.63;;;7.60;99.90;;;;;;5058815;28;20670;-80
2021/12/27 12:49:11;;;;;;;5.43;5.03;;;7.50;99.90;;;;;;5061705;28;20155;-81
2021/12/27 12:51:55;;;;;;;5.50;5.10;;;7.50;99.90;;;;;;5063101;28;20175;-80
2021/12/27 12:54:23;;;;;;;5.33;4.83;;;7.50;99.90;;;;;;5063975;28;20691;-81
2021/12/27 12:57:02;;;;;;;5.40;5.00;;;7.40;99.90;;;;;;5062052;28;20193;-81
2021/12/27 12:59:34;;;;;;;5.53;5.03;;;7.50;99.90;;;;;;5057820;28;20273;-79
2021/12/27 13:02:06;;;;;;;5.33;4.93;;;7.60;99.90;;;;;;5059832;28;20577;-79